Flight Track Log - Related Links

Times and Time Zones

All times are in EDT time to prevent confusion due to time zone crossing. See the KAL315 flight status page for this flight to view local times or setup timezone preferences in your user account.


Time Position Orientation Groundspeed Altitude Reporting Facility
EDT Latitude Longitude Course Direction KTS MPH feet Rate Location/Type
Tue 10:52:00 AM 37.3982 126.3934 213° Southwest  Level Estimated
Tue 10:53:00 AM 37.3213 126.3315 213° Southwest  Level Estimated
Tue 10:54:00 AM 37.2442 126.2696 213° Southwest  Level Estimated
Tue 10:55:00 AM 37.1672 126.2079 213° Southwest  Level Estimated
Tue 10:56:00 AM 37.0901 126.1464 213° Southwest  Level Estimated
Tue 10:57:00 AM 37.0130 126.0850 212° Southwest  Level Estimated
Tue 10:58:00 AM 36.9358 126.0236 212° Southwest  Level Estimated
Tue 10:59:00 AM 36.8586 125.9624 212° Southwest  Level Estimated
Tue 11:00:00 AM 36.7814 125.9014 212° Southwest  Level Estimated
Tue 11:01:00 AM 36.7042 125.8404 212° Southwest  Level Estimated
Tue 11:02:00 AM 36.6269 125.7796 212° Southwest  Level Estimated
Tue 11:03:00 AM 36.5496 125.7189 212° Southwest  Level Estimated
Tue 11:04:00 AM 36.4723 125.6583 212° Southwest  Level Estimated
Tue 11:05:00 AM 36.3949 125.5979 212° Southwest  Level Estimated
Tue 11:06:00 AM 36.3175 125.5376 212° Southwest  Level Estimated
Tue 11:07:00 AM 36.2401 125.4773 212° Southwest  Level Estimated
Tue 11:08:00 AM 36.1626 125.4172 212° Southwest  Level Estimated
Tue 11:09:00 AM 36.0851 125.3573 212° Southwest  Level Estimated
Tue 11:10:00 AM 36.0076 125.2974 212° Southwest  Level Estimated
Tue 11:11:00 AM 35.9300 125.2377 212° Southwest  Level Estimated
Tue 11:12:00 AM 35.8525 125.1780 212° Southwest  Level Estimated
Tue 11:13:00 AM 35.7749 125.1185 212° Southwest  Level Estimated
Tue 11:14:00 AM 35.6972 125.0591 212° Southwest  Level Estimated
Tue 11:15:00 AM 35.6196 124.9998 212° Southwest  Level Estimated
Tue 11:16:00 AM 35.5419 124.9407 212° Southwest  Level Estimated
Tue 11:17:00 AM 35.4641 124.8816 212° Southwest  Level Estimated
Tue 11:18:00 AM 35.3864 124.8227 212° Southwest  Level Estimated
Tue 11:19:00 AM 35.3086 124.7639 212° Southwest  Level Estimated
Tue 11:20:00 AM 35.2308 124.7052 212° Southwest  Level Estimated
Tue 11:21:00 AM 35.1530 124.6466 212° Southwest  Level Estimated
Tue 11:22:00 AM 35.0751 124.5881 212° Southwest  Level Estimated
Tue 11:23:00 AM 34.9972 124.5297 212° Southwest  Level Estimated
Tue 11:24:00 AM 34.9193 124.4715 212° Southwest  Level Estimated
Tue 11:25:00 AM 34.8413 124.4133 211° Southwest  Level Estimated
Tue 11:26:00 AM 34.7634 124.3553 211° Southwest  Level Estimated
Tue 11:27:00 AM 34.6854 124.2974 211° Southwest  Level Estimated
Tue 11:28:00 AM 34.6073 124.2395 211° Southwest  Level Estimated
Tue 11:29:00 AM 34.5293 124.1818 211° Southwest  Level Estimated
Tue 11:30:00 AM 34.4512 124.1242 211° Southwest  Level Estimated
Tue 11:31:00 AM 34.3731 124.0667 211° Southwest  Level Estimated
Tue 11:32:00 AM 34.2949 124.0093 211° Southwest  Level Estimated
Tue 11:33:00 AM 34.2168 123.9520 211° Southwest  Level Estimated
Tue 11:34:00 AM 34.1386 123.8949 211° Southwest  Level Estimated
Tue 11:35:00 AM 34.0603 123.8378 211° Southwest  Level Estimated
Tue 11:36:00 AM 33.9821 123.7808 211° Southwest  Level Estimated
Tue 11:37:00 AM 33.9038 123.7240 211° Southwest  Level Estimated
Tue 11:38:00 AM 33.8255 123.6672 211° Southwest  Level Estimated
Tue 11:39:00 AM 33.7472 123.6106 211° Southwest  Level Estimated
Tue 11:40:00 AM 33.6689 123.5540 211° Southwest  Level Estimated
Tue 11:41:00 AM 33.5905 123.4976 211° Southwest  Level Estimated
Tue 11:42:00 AM 33.5121 123.4412 211° Southwest  Level Estimated
Tue 11:43:00 AM 33.4337 123.3850 211° Southwest  Level Estimated
Tue 11:44:00 AM 33.3552 123.3288 211° Southwest  Level Estimated
Tue 11:45:00 AM 33.2767 123.2728 211° Southwest  Level Estimated
Tue 11:46:00 AM 33.1982 123.2169 211° Southwest  Level Estimated
Tue 11:47:00 AM 33.1197 123.1610 211° Southwest  Level Estimated
Tue 11:48:00 AM 33.0412 123.1053 211° Southwest  Level Estimated
Tue 11:49:00 AM 32.9626 123.0497 211° Southwest  Level Estimated
Tue 11:50:00 AM 32.8840 122.9941 211° Southwest  Level Estimated
Tue 11:51:00 AM 32.8054 122.9387 211° Southwest  Level Estimated
Tue 11:52:00 AM 32.7267 122.8833 211° Southwest  Level Estimated
Tue 11:53:00 AM 32.6480 122.8281 211° Southwest  Level Estimated
Tue 11:54:00 AM 32.5693 122.7729 211° Southwest  Level Estimated
Tue 11:55:00 AM 32.4906 122.7179 211° Southwest  Level Estimated
Tue 11:56:00 AM 32.4119 122.6629 211° Southwest  Level Estimated
Tue 11:57:00 AM 32.3331 122.6081 210° Southwest  Level Estimated
Tue 11:58:00 AM 32.2543 122.5533 210° Southwest  Level Estimated
Tue 11:59:00 AM 32.1755 122.4986 210° Southwest  Level Estimated
Tue 12:00:00 PM 32.0966 122.4441 210° Southwest  Level Estimated
Tue 12:01:00 PM 32.0178 122.3896 210° Southwest  Level Estimated
Tue 12:02:00 PM 31.9389 122.3352 210° Southwest  Level Estimated
Tue 12:03:00 PM 31.8600 122.2809 210° Southwest  Level Estimated
Tue 12:04:00 PM 31.7810 122.2267 210° Southwest  Level Estimated
Tue 12:05:00 PM 31.7021 122.1726 210° Southwest  Level Estimated
Tue 12:06:00 PM 31.6231 122.1186 210° Southwest  Level Estimated
Tue 12:07:00 PM 31.5441 122.0647 210° Southwest  Level Estimated
Tue 12:08:00 PM 31.4651 122.0108 210° Southwest  Level Estimated
Tue 12:09:00 PM 31.3860 121.9571 210° Southwest  Level Estimated
Tue 12:10:00 PM 31.3070 121.9034 210° Southwest  Level Estimated
Tue 12:11:00 PM 31.2279 121.8499 210° Southwest  Level Estimated
Tue 12:12:00 PM 31.1488 121.7964 210° Southwest  Level Estimated
Tue 12:13:00 PM 31.1428 121.7924 210° Southwest  Level Estimated
Tue 12:14:00 PM 31.1428 121.7924 North  Level Estimated
Tue 12:15:00 PM 31.1428 121.7924 North  Level Estimated
Tue 12:16:00 PM 31.1428 121.7924 North  Level Estimated
Tue 12:17:00 PM 31.1428 121.7924 North  Level Estimated

Login

Don't have an account? Register now (free) for customized features, flight alerts, and more!